createdAt,value
2018-07-20T00:00:23.475Z,0.00
2018-07-20T00:01:23.354Z,0.00
2018-07-20T00:02:23.231Z,0.00
2018-07-20T00:03:23.114Z,0.00
2018-07-20T00:04:22.991Z,0.00
2018-07-20T00:05:22.867Z,0.00
2018-07-20T00:06:25.684Z,0.00
2018-07-20T00:07:22.626Z,0.00
2018-07-20T00:08:22.504Z,0.00
2018-07-20T00:09:22.384Z,0.00
2018-07-20T00:10:22.258Z,0.00
2018-07-20T00:11:22.135Z,0.00
2018-07-20T00:12:22.016Z,0.00
2018-07-20T00:13:23.686Z,0.00
2018-07-20T00:14:21.773Z,0.00
2018-07-20T00:15:21.651Z,0.00
2018-07-20T00:16:21.536Z,0.00
2018-07-20T00:17:21.412Z,0.00
2018-07-20T00:18:21.290Z,0.00
2018-07-20T00:19:21.168Z,0.00
2018-07-20T00:20:21.046Z,0.00
2018-07-20T00:21:20.921Z,0.00
2018-07-20T00:22:20.802Z,0.00
2018-07-20T00:23:20.679Z,0.00
2018-07-20T00:24:22.189Z,0.00
2018-07-20T00:25:20.437Z,0.00
2018-07-20T00:26:20.315Z,0.00
2018-07-20T00:27:20.418Z,0.00
2018-07-20T00:28:20.194Z,0.00
2018-07-20T00:29:19.952Z,0.00
2018-07-20T00:30:19.837Z,0.00
2018-07-20T00:31:19.707Z,0.00
2018-07-20T00:32:19.590Z,0.00
2018-07-20T00:33:19.465Z,0.00
2018-07-20T00:34:19.342Z,0.00
2018-07-20T00:35:19.221Z,0.00
2018-07-20T00:36:19.101Z,0.00
2018-07-20T00:37:18.977Z,0.00
2018-07-20T00:38:18.861Z,0.00
2018-07-20T00:39:18.735Z,0.00
2018-07-20T00:40:18.613Z,0.00
2018-07-20T00:41:18.494Z,0.00
2018-07-20T00:42:18.371Z,0.00
2018-07-20T00:43:18.248Z,0.00
2018-07-20T00:44:18.130Z,0.00
2018-07-20T00:45:18.005Z,0.00
2018-07-20T00:46:17.884Z,0.00
2018-07-20T00:47:17.763Z,0.00
2018-07-20T00:48:17.639Z,0.00
2018-07-20T00:49:17.520Z,0.00
2018-07-20T00:50:17.398Z,0.00
2018-07-20T00:51:17.273Z,0.00
2018-07-20T00:52:17.156Z,0.00
2018-07-20T00:53:17.029Z,0.00
2018-07-20T00:54:19.696Z,0.00
2018-07-20T00:55:16.791Z,0.00
2018-07-20T00:56:16.696Z,0.00
2018-07-20T00:57:16.546Z,0.00
2018-07-20T00:58:16.422Z,0.00
2018-07-20T00:59:16.302Z,0.00
2018-07-20T01:00:16.181Z,0.00
2018-07-20T01:01:17.698Z,0.00
2018-07-20T01:02:15.939Z,0.00
2018-07-20T01:03:15.816Z,0.00
2018-07-20T01:04:15.697Z,0.00
2018-07-20T01:05:15.572Z,0.00
2018-07-20T01:06:15.455Z,0.00
2018-07-20T01:07:15.331Z,0.00
2018-07-20T01:08:15.209Z,0.00
2018-07-20T01:09:15.086Z,0.00
2018-07-20T01:10:14.966Z,0.00
2018-07-20T01:11:14.850Z,0.00
2018-07-20T01:12:14.723Z,0.00
2018-07-20T01:13:14.603Z,0.00
2018-07-20T01:14:14.480Z,0.00
2018-07-20T01:15:14.359Z,0.00
2018-07-20T01:16:14.238Z,0.00
2018-07-20T01:17:15.701Z,0.00
2018-07-20T01:18:15.705Z,0.00
2018-07-20T01:19:13.870Z,0.00
2018-07-20T01:20:13.748Z,0.00
2018-07-20T01:21:13.627Z,0.00
2018-07-20T01:22:13.503Z,0.00
2018-07-20T01:23:13.856Z,0.00
2018-07-20T01:24:13.268Z,0.00
2018-07-20T01:25:13.139Z,0.00
2018-07-20T01:26:13.018Z,0.00
2018-07-20T01:27:12.896Z,0.00
2018-07-20T01:28:12.775Z,0.00
2018-07-20T01:29:12.654Z,0.00
2018-07-20T01:30:12.533Z,0.00
2018-07-20T01:31:12.409Z,0.00
2018-07-20T01:32:14.204Z,0.00
2018-07-20T01:33:12.165Z,0.00
2018-07-20T01:34:12.043Z,0.00
2018-07-20T01:35:11.922Z,0.00
2018-07-20T01:36:11.802Z,0.00
2018-07-20T01:37:11.683Z,0.00
2018-07-20T01:38:11.559Z,0.00
2018-07-20T01:39:11.443Z,0.00
2018-07-20T01:40:11.315Z,0.00
2018-07-20T01:41:11.196Z,0.00
2018-07-20T01:42:11.070Z,0.00
2018-07-20T01:43:10.952Z,0.00
2018-07-20T01:44:10.829Z,0.00
2018-07-20T01:45:10.707Z,0.00
2018-07-20T01:46:10.585Z,0.00
2018-07-20T01:47:10.467Z,0.00
2018-07-20T01:48:10.344Z,0.00
2018-07-20T01:49:10.225Z,0.00
2018-07-20T01:50:10.100Z,0.00
2018-07-20T01:51:09.975Z,0.00
2018-07-20T01:52:09.856Z,0.00
2018-07-20T01:53:11.709Z,0.00
2018-07-20T01:54:11.210Z,0.00
2018-07-20T01:55:09.493Z,0.00
2018-07-20T01:56:09.372Z,0.00
2018-07-20T01:57:09.252Z,0.00
2018-07-20T01:58:09.125Z,0.00
2018-07-20T01:59:09.003Z,0.00
2018-07-20T02:00:08.887Z,0.00
2018-07-20T02:01:08.764Z,0.00
2018-07-20T02:02:08.644Z,0.00
2018-07-20T02:03:08.522Z,0.00
2018-07-20T02:04:08.402Z,0.00
2018-07-20T02:05:08.279Z,0.00
2018-07-20T02:06:08.158Z,0.00
2018-07-20T02:07:08.036Z,0.00
2018-07-20T02:08:07.914Z,0.00
2018-07-20T02:09:07.792Z,0.00
2018-07-20T02:10:07.674Z,0.00
2018-07-20T02:11:09.215Z,0.00
2018-07-20T02:12:07.436Z,0.00
2018-07-20T02:13:07.307Z,0.00
2018-07-20T02:14:07.185Z,0.00
2018-07-20T02:15:07.064Z,0.00
2018-07-20T02:16:06.947Z,0.00
2018-07-20T02:17:06.825Z,0.00
2018-07-20T02:18:06.704Z,0.00
2018-07-20T02:19:06.579Z,0.00
2018-07-20T02:20:06.462Z,0.00
2018-07-20T02:21:06.338Z,0.00
2018-07-20T02:22:07.718Z,0.00
2018-07-20T02:23:06.099Z,0.00
2018-07-20T02:24:05.975Z,0.00
2018-07-20T02:25:05.854Z,0.00
2018-07-20T02:26:05.730Z,0.00
2018-07-20T02:27:05.615Z,0.00
2018-07-20T02:28:05.490Z,0.00
2018-07-20T02:29:05.369Z,0.00
2018-07-20T02:30:05.251Z,0.00
2018-07-20T02:31:05.127Z,0.00
2018-07-20T02:32:05.004Z,0.00
2018-07-20T02:33:06.721Z,0.00
2018-07-20T02:34:04.762Z,0.00
2018-07-20T02:35:04.641Z,0.00
2018-07-20T02:36:06.229Z,0.00
2018-07-20T02:37:04.394Z,0.00
2018-07-20T02:38:04.278Z,0.00
2018-07-20T02:39:04.151Z,0.00
2018-07-20T02:40:04.031Z,0.00
2018-07-20T02:41:03.910Z,0.00
2018-07-20T02:42:03.789Z,0.00
2018-07-20T02:43:03.668Z,0.00
2018-07-20T02:44:03.546Z,0.00
2018-07-20T02:45:03.427Z,0.00
2018-07-20T02:46:03.303Z,0.00
2018-07-20T02:47:03.186Z,0.00
2018-07-20T02:48:03.057Z,0.00
2018-07-20T02:49:02.937Z,0.00
2018-07-20T02:50:02.817Z,0.00
2018-07-20T02:51:02.693Z,0.00
2018-07-20T02:52:02.579Z,0.00
2018-07-20T02:53:02.450Z,0.00
2018-07-20T02:54:02.328Z,0.00
2018-07-20T02:55:02.206Z,0.00
2018-07-20T02:56:02.083Z,0.00
2018-07-20T02:57:01.965Z,0.00
2018-07-20T02:58:01.842Z,0.00
2018-07-20T02:59:01.717Z,0.00
2018-07-20T03:00:01.599Z,0.00
2018-07-20T03:01:01.473Z,0.00
2018-07-20T03:02:01.354Z,0.00
2018-07-20T03:03:01.233Z,0.00
2018-07-20T03:04:01.106Z,0.00
2018-07-20T03:05:00.985Z,0.00
2018-07-20T03:06:00.861Z,0.00
2018-07-20T03:07:00.739Z,0.00
2018-07-20T03:08:00.616Z,0.00
2018-07-20T03:09:00.552Z,0.00
2018-07-20T03:10:00.381Z,0.00
2018-07-20T03:11:00.251Z,0.00
2018-07-20T03:12:00.136Z,0.00
2018-07-20T03:13:00.009Z,0.00
2018-07-20T03:13:59.886Z,0.00
2018-07-20T03:14:59.763Z,0.00
2018-07-20T03:16:01.232Z,0.00
2018-07-20T03:16:59.523Z,0.00
2018-07-20T03:17:59.399Z,0.00
2018-07-20T03:18:59.277Z,0.00
2018-07-20T03:19:59.864Z,0.00
2018-07-20T03:20:59.041Z,4.00
2018-07-20T03:21:58.909Z,4.00
2018-07-20T03:22:58.786Z,0.00
2018-07-20T03:23:58.664Z,4.00
2018-07-20T03:24:58.545Z,4.00
2018-07-20T03:26:00.234Z,0.00
2018-07-20T03:26:58.299Z,4.00
2018-07-20T03:27:58.176Z,8.00
2018-07-20T03:28:58.052Z,4.00
2018-07-20T03:29:57.929Z,8.00
2018-07-20T03:30:57.808Z,8.00
2018-07-20T03:31:57.688Z,8.00
2018-07-20T03:32:57.586Z,12.00
2018-07-20T03:33:57.442Z,12.00
2018-07-20T03:34:59.235Z,12.00
2018-07-20T03:35:58.737Z,16.00
2018-07-20T03:36:57.079Z,16.00
2018-07-20T03:37:56.954Z,16.00
2018-07-20T03:38:56.833Z,20.00
2018-07-20T03:39:56.706Z,24.00
2018-07-20T03:40:56.585Z,24.00
2018-07-20T03:41:56.462Z,28.00
2018-07-20T03:42:56.343Z,32.00
2018-07-20T03:43:56.220Z,36.00
2018-07-20T03:44:56.099Z,40.00
2018-07-20T03:45:55.974Z,44.00
2018-07-20T03:46:57.740Z,48.00
2018-07-20T03:47:55.730Z,52.00
2018-07-20T03:48:57.246Z,56.00
2018-07-20T03:49:55.485Z,64.00
2018-07-20T03:50:55.363Z,68.00
2018-07-20T03:51:55.239Z,72.00
2018-07-20T03:52:56.741Z,76.00
2018-07-20T03:53:54.999Z,80.00
2018-07-20T03:54:54.875Z,84.00
2018-07-20T03:55:54.749Z,88.00
2018-07-20T03:56:54.631Z,96.00
2018-07-20T03:57:54.507Z,100.00
2018-07-20T03:58:56.242Z,104.00
2018-07-20T03:59:54.260Z,108.00
2018-07-20T04:00:54.144Z,120.00
2018-07-20T04:01:54.021Z,124.00
2018-07-20T04:02:53.899Z,136.00
2018-07-20T04:03:53.773Z,144.00
2018-07-20T04:04:53.653Z,156.00
2018-07-20T04:05:53.534Z,176.00
2018-07-20T04:06:53.408Z,172.00
2018-07-20T04:07:53.288Z,176.00
2018-07-20T04:08:53.167Z,180.00
2018-07-20T04:09:54.745Z,192.00
2018-07-20T04:10:52.921Z,188.00
2018-07-20T04:11:52.799Z,180.00
2018-07-20T04:12:52.677Z,180.00
2018-07-20T04:13:52.552Z,184.00
2018-07-20T04:14:52.432Z,188.00
2018-07-20T04:15:52.310Z,188.00
2018-07-20T04:16:52.189Z,196.00
2018-07-20T04:17:52.066Z,204.00
2018-07-20T04:18:51.945Z,200.00
2018-07-20T04:19:51.824Z,204.00
2018-07-20T04:20:51.705Z,212.00
2018-07-20T04:21:51.575Z,232.00
2018-07-20T04:22:54.248Z,264.00
2018-07-20T04:23:51.334Z,280.00
2018-07-20T04:24:51.223Z,284.00
2018-07-20T04:25:52.750Z,272.00
2018-07-20T04:26:52.748Z,272.00
2018-07-20T04:27:50.849Z,288.00
2018-07-20T04:28:50.725Z,308.00
2018-07-20T04:29:50.603Z,336.00
2018-07-20T04:30:50.481Z,376.00
2018-07-20T04:31:50.364Z,408.00
2018-07-20T04:32:50.237Z,424.00
2018-07-20T04:33:50.116Z,480.00
2018-07-20T04:34:51.750Z,524.00
2018-07-20T04:35:49.882Z,588.00
2018-07-20T04:36:49.752Z,548.00
2018-07-20T04:37:51.252Z,484.00
2018-07-20T04:38:49.507Z,452.00
2018-07-20T04:39:49.386Z,464.00
2018-07-20T04:40:49.265Z,464.00
2018-07-20T04:41:49.144Z,472.00
2018-07-20T04:42:49.020Z,520.00
2018-07-20T04:43:48.935Z,560.00
2018-07-20T04:44:48.778Z,624.00
2018-07-20T04:45:48.657Z,680.00
2018-07-20T04:46:48.534Z,712.00
2018-07-20T04:47:48.417Z,708.00
2018-07-20T04:48:48.293Z,692.00
2018-07-20T04:49:48.173Z,708.00
2018-07-20T04:50:48.051Z,752.00
2018-07-20T04:51:47.935Z,820.00
2018-07-20T04:52:49.754Z,880.00
2018-07-20T04:53:47.687Z,852.00
2018-07-20T04:54:47.565Z,844.00
2018-07-20T04:55:47.448Z,892.00
2018-07-20T04:56:49.257Z,968.00
2018-07-20T04:57:47.199Z,936.00
2018-07-20T04:58:47.098Z,912.00
2018-07-20T04:59:46.965Z,984.00
2018-07-20T05:00:46.839Z,944.00
2018-07-20T05:01:48.257Z,884.00
2018-07-20T05:02:46.599Z,828.00
2018-07-20T05:03:46.674Z,848.00
2018-07-20T05:04:46.356Z,904.00
2018-07-20T05:05:46.255Z,952.00
2018-07-20T05:06:46.113Z,976.00
2018-07-20T05:07:45.993Z,1016.00
2018-07-20T05:08:45.880Z,1056.00
2018-07-20T05:09:47.258Z,1060.00
2018-07-20T05:10:45.628Z,1184.00
2018-07-20T05:11:45.508Z,1228.00
2018-07-20T05:12:45.389Z,1280.00
2018-07-20T05:13:46.760Z,1292.00
2018-07-20T05:14:45.146Z,1276.00
2018-07-20T05:15:45.027Z,1272.00
2018-07-20T05:16:45.885Z,1168.00
2018-07-20T05:17:44.784Z,1088.00
2018-07-20T05:18:44.662Z,1096.00
2018-07-20T05:19:44.543Z,1136.00
2018-07-20T05:20:46.273Z,1060.00
2018-07-20T05:21:44.302Z,1020.00
2018-07-20T05:22:44.179Z,1008.00
2018-07-20T05:23:44.062Z,976.00
2018-07-20T05:24:43.937Z,1012.00
2018-07-20T05:25:43.816Z,1088.00
2018-07-20T05:26:43.696Z,1148.00
2018-07-20T05:27:43.579Z,1072.00
2018-07-20T05:28:43.457Z,1044.00
2018-07-20T05:29:43.332Z,1008.00
2018-07-20T05:30:43.213Z,972.00
2018-07-20T05:31:43.091Z,1072.00
2018-07-20T05:32:43.062Z,1200.00
2018-07-20T05:33:42.850Z,1268.00
2018-07-20T05:34:42.729Z,1244.00
2018-07-20T05:35:42.612Z,1312.00
2018-07-20T05:36:42.495Z,1096.00
2018-07-20T05:37:42.367Z,1060.00
2018-07-20T05:38:42.247Z,1080.00
2018-07-20T05:39:42.129Z,1116.00
2018-07-20T05:40:42.008Z,1128.00
2018-07-20T05:41:41.889Z,1056.00
2018-07-20T05:42:41.766Z,872.00
2018-07-20T05:43:41.644Z,760.00
2018-07-20T05:44:41.523Z,740.00
2018-07-20T05:45:41.887Z,780.00
2018-07-20T05:46:41.282Z,840.00
2018-07-20T05:47:41.183Z,932.00
2018-07-20T05:48:41.045Z,1108.00
2018-07-20T05:49:40.925Z,1144.00
2018-07-20T05:50:40.799Z,1324.00
2018-07-20T05:51:40.680Z,1284.00
2018-07-20T05:52:40.560Z,1300.00
2018-07-20T05:53:40.441Z,1416.00
2018-07-20T05:54:40.321Z,1648.00
2018-07-20T05:55:40.198Z,1492.00
2018-07-20T05:56:40.077Z,1316.00
2018-07-20T05:57:39.958Z,1204.00
2018-07-20T05:58:39.836Z,1180.00
2018-07-20T05:59:39.716Z,1148.00
2018-07-20T06:00:39.600Z,1052.00
2018-07-20T06:01:39.471Z,956.00
2018-07-20T06:02:39.354Z,1088.00
2018-07-20T06:03:39.234Z,1068.00
2018-07-20T06:04:39.118Z,1028.00
2018-07-20T06:05:39.063Z,792.00
2018-07-20T06:06:38.875Z,1040.00
2018-07-20T06:07:38.753Z,1032.00
2018-07-20T06:08:38.658Z,1028.00
2018-07-20T06:09:40.276Z,1048.00
2018-07-20T06:10:38.392Z,1056.00
2018-07-20T06:11:38.272Z,1092.00
2018-07-20T06:12:38.154Z,1116.00
2018-07-20T06:13:38.034Z,1132.00
2018-07-20T06:14:37.914Z,1016.00
2018-07-20T06:15:37.793Z,1076.00
2018-07-20T06:16:37.673Z,824.00
2018-07-20T06:17:37.552Z,852.00
2018-07-20T06:18:37.431Z,816.00
2018-07-20T06:19:37.313Z,824.00
2018-07-20T06:20:37.199Z,864.00
2018-07-20T06:21:38.778Z,868.00
2018-07-20T06:22:36.956Z,948.00
2018-07-20T06:23:36.958Z,944.00
2018-07-20T06:24:36.716Z,1060.00
2018-07-20T06:25:36.591Z,1192.00
2018-07-20T06:26:36.842Z,1220.00
2018-07-20T06:27:36.351Z,1224.00
2018-07-20T06:28:36.233Z,1192.00
2018-07-20T06:29:36.130Z,1152.00
2018-07-20T06:30:37.780Z,1060.00
2018-07-20T06:31:35.872Z,1220.00
2018-07-20T06:32:35.757Z,960.00
2018-07-20T06:33:35.632Z,1044.00
2018-07-20T06:34:35.516Z,1320.00
2018-07-20T06:35:35.391Z,1220.00
2018-07-20T06:36:35.272Z,1408.00
2018-07-20T06:37:35.154Z,1368.00
2018-07-20T06:38:35.036Z,1484.00
2018-07-20T06:39:34.916Z,1444.00
2018-07-20T06:40:34.826Z,1480.00
2018-07-20T06:41:35.747Z,1516.00
2018-07-20T06:42:34.556Z,1540.00
2018-07-20T06:43:34.447Z,1556.00
2018-07-20T06:44:34.321Z,1584.00
2018-07-20T06:45:34.198Z,1636.00
2018-07-20T06:46:34.080Z,1620.00
2018-07-20T06:47:35.785Z,1724.00
2018-07-20T06:48:33.839Z,1872.00
2018-07-20T06:49:35.287Z,2012.00
2018-07-20T06:50:33.637Z,2152.00
2018-07-20T06:51:33.482Z,2220.00
2018-07-20T06:52:35.287Z,2212.00
2018-07-20T06:53:33.347Z,2012.00
2018-07-20T06:54:33.123Z,1620.00
2018-07-20T06:55:33.009Z,1452.00
2018-07-20T06:56:32.890Z,1380.00
2018-07-20T06:57:32.770Z,1356.00
2018-07-20T06:58:32.650Z,1244.00
2018-07-20T06:59:32.530Z,1236.00
2018-07-20T07:00:32.411Z,1208.00
2018-07-20T07:01:33.792Z,1516.00
2018-07-20T07:02:33.790Z,1528.00
2018-07-20T07:03:32.056Z,1268.00
2018-07-20T07:04:31.938Z,1428.00
2018-07-20T07:05:31.818Z,1528.00
2018-07-20T07:06:31.700Z,1624.00
2018-07-20T07:07:31.583Z,1608.00
2018-07-20T07:08:33.292Z,1548.00
2018-07-20T07:09:31.370Z,1332.00
2018-07-20T07:10:31.224Z,1152.00
2018-07-20T07:11:31.106Z,1460.00
2018-07-20T07:12:30.986Z,1384.00
2018-07-20T07:13:30.868Z,1380.00
2018-07-20T07:14:30.783Z,1412.00
2018-07-20T07:15:31.762Z,1360.00
2018-07-20T07:16:30.518Z,1416.00
2018-07-20T07:17:30.396Z,1412.00
2018-07-20T07:18:30.281Z,1404.00
2018-07-20T07:19:30.156Z,1408.00
2018-07-20T07:20:30.040Z,1412.00
2018-07-20T07:21:30.020Z,1416.00
2018-07-20T07:22:29.807Z,1424.00
2018-07-20T07:23:29.683Z,1424.00
2018-07-20T07:24:29.570Z,1432.00
2018-07-20T07:25:29.445Z,1452.00
2018-07-20T07:26:29.332Z,1464.00
2018-07-20T07:27:29.210Z,1472.00
2018-07-20T07:28:29.091Z,1476.00
2018-07-20T07:29:28.972Z,1500.00
2018-07-20T07:30:28.857Z,1516.00
2018-07-20T07:31:28.736Z,1540.00
2018-07-20T07:32:28.621Z,1564.00
2018-07-20T07:33:30.299Z,1620.00
2018-07-20T07:34:28.383Z,1752.00
2018-07-20T07:35:28.264Z,1544.00
2018-07-20T07:36:28.145Z,1904.00
2018-07-20T07:37:28.034Z,1972.00
2018-07-20T07:38:27.909Z,1984.00
2018-07-20T07:39:27.853Z,1944.00
2018-07-20T07:40:27.679Z,1900.00
2018-07-20T07:41:27.590Z,1972.00
2018-07-20T07:42:29.302Z,2132.00
2018-07-20T07:43:27.324Z,2300.00
2018-07-20T07:44:27.244Z,2320.00
2018-07-20T07:45:27.088Z,2256.00
2018-07-20T07:46:26.980Z,2148.00
2018-07-20T07:47:26.858Z,2044.00
2018-07-20T07:48:26.737Z,2028.00
2018-07-20T07:49:26.684Z,1672.00
2018-07-20T07:50:29.312Z,1728.00
2018-07-20T07:51:26.387Z,1532.00
2018-07-20T07:52:26.267Z,1592.00
2018-07-20T07:53:26.148Z,1588.00
2018-07-20T07:54:26.133Z,1492.00
2018-07-20T07:55:25.916Z,1456.00
2018-07-20T07:56:25.804Z,1456.00
2018-07-20T07:57:25.680Z,1352.00
2018-07-20T07:58:25.565Z,1232.00
2018-07-20T07:59:25.453Z,1144.00
2018-07-20T08:00:25.329Z,1076.00
2018-07-20T08:01:25.210Z,1072.00
2018-07-20T08:02:25.091Z,1400.00
2018-07-20T08:03:25.014Z,1324.00
2018-07-20T08:04:24.859Z,1620.00
2018-07-20T08:05:24.741Z,1428.00
2018-07-20T08:06:24.622Z,1608.00
2018-07-20T08:07:24.508Z,1600.00
2018-07-20T08:08:24.395Z,1608.00
2018-07-20T08:09:24.271Z,1624.00
2018-07-20T08:10:24.268Z,1640.00
2018-07-20T08:11:24.036Z,1656.00
2018-07-20T08:12:23.919Z,1680.00
2018-07-20T08:13:23.802Z,1708.00
2018-07-20T08:14:25.402Z,1740.00
2018-07-20T08:15:23.568Z,1788.00
2018-07-20T08:16:23.451Z,1856.00
2018-07-20T08:17:23.340Z,1924.00
2018-07-20T08:18:23.219Z,2012.00
2018-07-20T08:19:23.103Z,2108.00
2018-07-20T08:20:22.985Z,2292.00
2018-07-20T08:21:22.866Z,2564.00
2018-07-20T08:22:22.751Z,2784.00
2018-07-20T08:23:24.315Z,2644.00
2018-07-20T08:24:22.516Z,2464.00
2018-07-20T08:25:22.399Z,2512.00
2018-07-20T08:26:22.410Z,2608.00
2018-07-20T08:27:22.165Z,2632.00
2018-07-20T08:28:22.050Z,2596.00
2018-07-20T08:29:21.982Z,2620.00
2018-07-20T08:30:21.833Z,2668.00
2018-07-20T08:31:23.319Z,2776.00
2018-07-20T08:32:21.587Z,2724.00
2018-07-20T08:33:21.468Z,2464.00
2018-07-20T08:34:21.348Z,2856.00
2018-07-20T08:35:21.233Z,2684.00
2018-07-20T08:36:21.119Z,2424.00
2018-07-20T08:37:21.005Z,2316.00
2018-07-20T08:38:20.884Z,2404.00
2018-07-20T08:39:23.183Z,2380.00
2018-07-20T08:40:20.656Z,2368.00
2018-07-20T08:41:20.997Z,2416.00
2018-07-20T08:42:20.420Z,2372.00
2018-07-20T08:43:20.309Z,2416.00
2018-07-20T08:44:20.186Z,2536.00
2018-07-20T08:45:20.070Z,2632.00
2018-07-20T08:46:19.956Z,2552.00
2018-07-20T08:47:19.839Z,2300.00
2018-07-20T08:48:19.722Z,2100.00
2018-07-20T08:49:19.609Z,2024.00
2018-07-20T08:50:19.490Z,2044.00
2018-07-20T08:51:19.377Z,2116.00
2018-07-20T08:52:19.264Z,2040.00
2018-07-20T08:53:19.144Z,2144.00
2018-07-20T08:54:19.029Z,2352.00
2018-07-20T08:55:18.913Z,2532.00
2018-07-20T08:56:18.800Z,2484.00
2018-07-20T08:57:18.687Z,2316.00
2018-07-20T08:58:18.571Z,2324.00
2018-07-20T08:59:18.449Z,2596.00
2018-07-20T09:00:18.337Z,2916.00
2018-07-20T09:01:18.222Z,3096.00
2018-07-20T09:02:18.107Z,3276.00
2018-07-20T09:03:17.991Z,3228.00
2018-07-20T09:04:17.876Z,3288.00
2018-07-20T09:05:17.757Z,3424.00
2018-07-20T09:06:17.643Z,3396.00
2018-07-20T09:07:17.530Z,3208.00
2018-07-20T09:08:17.415Z,3208.00
2018-07-20T09:09:17.296Z,3192.00
2018-07-20T09:10:17.935Z,3280.00
2018-07-20T09:11:17.068Z,3360.00
2018-07-20T09:12:16.957Z,3360.00
2018-07-20T09:13:16.838Z,3432.00
2018-07-20T09:14:18.334Z,3648.00
2018-07-20T09:15:16.603Z,3848.00
2018-07-20T09:16:16.492Z,3488.00
2018-07-20T09:17:16.375Z,3180.00
2018-07-20T09:18:16.259Z,2940.00
2018-07-20T09:19:16.155Z,2936.00
2018-07-20T09:20:16.033Z,3000.00
2018-07-20T09:21:15.912Z,2972.00
2018-07-20T09:22:15.800Z,3248.00
2018-07-20T09:23:15.683Z,3468.00
2018-07-20T09:24:15.568Z,3536.00
2018-07-20T09:25:15.458Z,3480.00
2018-07-20T09:26:15.337Z,3472.00
2018-07-20T09:27:15.224Z,3396.00
2018-07-20T09:28:15.117Z,3260.00
2018-07-20T09:29:14.995Z,3244.00
2018-07-20T09:30:14.881Z,3276.00
2018-07-20T09:31:14.766Z,3244.00
2018-07-20T09:32:14.649Z,3036.00
2018-07-20T09:33:14.536Z,3152.00
2018-07-20T09:34:14.500Z,3060.00
2018-07-20T09:35:14.311Z,3144.00
2018-07-20T09:36:14.191Z,3260.00
2018-07-20T09:37:14.075Z,3188.00
2018-07-20T09:38:17.765Z,3536.00
2018-07-20T09:39:20.347Z,3700.00
2018-07-20T09:40:13.731Z,3984.00
2018-07-20T09:41:13.621Z,4336.00
2018-07-20T09:42:13.505Z,4592.00
2018-07-20T09:43:13.487Z,4696.00
2018-07-20T09:44:13.320Z,4612.00
2018-07-20T09:45:13.159Z,4400.00
2018-07-20T09:46:13.044Z,4004.00
2018-07-20T09:47:12.930Z,3464.00
2018-07-20T09:48:12.814Z,3380.00
2018-07-20T09:49:12.702Z,3316.00
2018-07-20T09:50:12.585Z,2904.00
2018-07-20T09:51:13.350Z,2688.00
2018-07-20T09:52:12.355Z,2692.00
2018-07-20T09:53:12.241Z,2868.00
2018-07-20T09:54:12.129Z,3032.00
2018-07-20T09:55:12.014Z,3164.00
2018-07-20T09:56:11.898Z,3180.00
2018-07-20T09:57:11.785Z,3104.00
2018-07-20T09:58:11.671Z,3296.00
2018-07-20T09:59:11.556Z,3280.00
2018-07-20T10:00:11.448Z,3460.00
2018-07-20T10:01:11.323Z,3520.00
2018-07-20T10:02:11.218Z,3880.00
2018-07-20T10:03:11.859Z,4060.00
2018-07-20T10:04:11.858Z,4216.00
2018-07-20T10:05:10.868Z,4440.00
2018-07-20T10:06:10.752Z,4360.00
2018-07-20T10:07:10.637Z,4356.00
2018-07-20T10:08:10.521Z,4208.00
2018-07-20T10:09:10.407Z,4388.00
2018-07-20T10:10:10.292Z,4948.00
2018-07-20T10:11:10.291Z,4540.00
2018-07-20T10:12:10.061Z,4480.00
2018-07-20T10:13:09.947Z,4816.00
2018-07-20T10:14:09.842Z,5076.00
2018-07-20T10:15:09.722Z,5268.00
2018-07-20T10:16:09.606Z,5276.00
2018-07-20T10:17:09.489Z,4908.00
2018-07-20T10:18:09.379Z,4452.00
2018-07-20T10:19:09.280Z,4004.00
2018-07-20T10:20:09.150Z,3644.00
2018-07-20T10:21:09.033Z,3276.00
2018-07-20T10:22:08.926Z,3480.00
2018-07-20T10:23:08.804Z,3472.00
2018-07-20T10:24:08.691Z,3104.00
2018-07-20T10:25:08.575Z,3368.00
2018-07-20T10:26:08.462Z,3808.00
2018-07-20T10:27:10.862Z,3320.00
2018-07-20T10:28:10.858Z,2856.00
2018-07-20T10:29:08.122Z,3128.00
2018-07-20T10:30:08.007Z,2912.00
2018-07-20T10:31:07.893Z,3496.00
2018-07-20T10:32:07.778Z,3584.00
2018-07-20T10:33:07.673Z,3676.00
2018-07-20T10:34:07.553Z,3280.00
2018-07-20T10:35:08.369Z,3804.00
2018-07-20T10:36:07.331Z,3292.00
2018-07-20T10:37:07.209Z,4412.00
2018-07-20T10:38:07.946Z,5096.00
2018-07-20T10:39:06.985Z,5524.00
2018-07-20T10:40:06.871Z,6076.00
2018-07-20T10:41:09.368Z,6476.00
2018-07-20T10:42:06.640Z,5520.00
2018-07-20T10:43:06.539Z,4512.00
2018-07-20T10:44:06.414Z,3788.00
2018-07-20T10:45:06.300Z,4016.00
2018-07-20T10:46:06.187Z,3044.00
2018-07-20T10:47:06.076Z,3008.00
2018-07-20T10:48:05.957Z,2848.00
2018-07-20T10:49:05.848Z,1996.00
2018-07-20T10:50:05.735Z,2396.00
2018-07-20T10:51:05.625Z,2604.00
2018-07-20T10:52:05.560Z,3112.00
2018-07-20T10:53:05.395Z,3516.00
2018-07-20T10:54:05.281Z,4356.00
2018-07-20T10:55:05.169Z,4760.00
2018-07-20T10:56:05.056Z,4560.00
2018-07-20T10:57:04.943Z,4100.00
2018-07-20T10:58:04.828Z,4008.00
2018-07-20T10:59:04.713Z,3524.00
2018-07-20T11:00:04.599Z,2924.00
2018-07-20T11:01:04.485Z,2872.00
2018-07-20T11:02:04.375Z,3208.00
2018-07-20T11:03:04.526Z,3716.00
2018-07-20T11:04:04.149Z,2896.00
2018-07-20T11:05:04.032Z,3052.00
2018-07-20T11:06:03.917Z,4148.00
2018-07-20T11:07:03.948Z,3464.00
2018-07-20T11:08:03.748Z,3456.00
2018-07-20T11:09:03.591Z,4312.00
2018-07-20T11:10:03.460Z,4392.00
2018-07-20T11:11:03.348Z,3668.00
2018-07-20T11:12:03.240Z,3656.00
2018-07-20T11:13:03.122Z,4308.00
2018-07-20T11:14:03.012Z,3412.00
2018-07-20T11:15:02.902Z,4064.00
2018-07-20T11:16:02.783Z,4392.00
2018-07-20T11:17:02.671Z,4424.00
2018-07-20T11:18:02.553Z,4404.00
2018-07-20T11:19:02.445Z,4844.00
2018-07-20T11:20:02.334Z,5336.00
2018-07-20T11:21:02.213Z,5328.00
2018-07-20T11:22:02.102Z,4984.00
2018-07-20T11:23:01.987Z,4976.00
2018-07-20T11:24:01.871Z,5004.00
2018-07-20T11:25:01.761Z,5192.00
2018-07-20T11:26:01.644Z,5560.00
2018-07-20T11:27:01.532Z,5748.00
2018-07-20T11:28:01.455Z,5672.00
2018-07-20T11:29:01.307Z,5580.00
2018-07-20T11:30:02.884Z,5464.00
2018-07-20T11:31:01.076Z,5780.00
2018-07-20T11:32:00.962Z,6532.00
2018-07-20T11:33:00.847Z,6220.00
2018-07-20T11:34:00.739Z,6024.00
2018-07-20T11:35:00.620Z,6128.00
2018-07-20T11:36:00.507Z,6252.00
2018-07-20T11:37:00.394Z,6264.00
2018-07-20T11:38:00.280Z,6320.00
2018-07-20T11:39:00.165Z,6336.00
2018-07-20T11:40:00.055Z,6464.00
2018-07-20T11:40:59.940Z,6692.00
2018-07-20T11:41:59.866Z,7300.00
2018-07-20T11:42:59.714Z,6612.00
2018-07-20T11:43:59.606Z,7532.00
2018-07-20T11:44:59.532Z,7524.00
2018-07-20T11:45:59.376Z,7884.00
2018-07-20T11:46:59.264Z,7260.00
2018-07-20T11:47:59.150Z,6588.00
2018-07-20T11:48:59.039Z,6016.00
2018-07-20T11:49:58.926Z,5704.00
2018-07-20T11:50:58.815Z,6700.00
2018-07-20T11:51:58.701Z,6448.00
2018-07-20T11:52:58.587Z,6340.00
2018-07-20T11:53:58.478Z,6048.00
2018-07-20T11:54:58.367Z,4660.00
2018-07-20T11:55:58.273Z,3600.00
2018-07-20T11:56:58.140Z,3984.00
2018-07-20T11:57:58.028Z,2960.00
2018-07-20T11:58:57.915Z,2664.00
2018-07-20T11:59:58.404Z,2396.00
2018-07-20T12:00:57.702Z,2200.00
2018-07-20T12:01:57.661Z,1776.00
2018-07-20T12:02:57.466Z,1548.00
2018-07-20T12:03:57.355Z,1320.00
2018-07-20T12:04:57.252Z,1064.00
2018-07-20T12:05:57.978Z,892.00
2018-07-20T12:06:57.104Z,796.00
2018-07-20T12:07:56.902Z,756.00
2018-07-20T12:08:56.788Z,792.00
2018-07-20T12:09:56.676Z,884.00
2018-07-20T12:10:56.566Z,1052.00
2018-07-20T12:11:56.455Z,1296.00
2018-07-20T12:12:56.335Z,1624.00
2018-07-20T12:13:57.903Z,1960.00
2018-07-20T12:14:56.106Z,2324.00
2018-07-20T12:15:55.993Z,2484.00
2018-07-20T12:16:55.878Z,2488.00
2018-07-20T12:17:57.397Z,2360.00
2018-07-20T12:18:55.654Z,2176.00
2018-07-20T12:19:57.397Z,2124.00
2018-07-20T12:20:55.423Z,2192.00
2018-07-20T12:21:55.304Z,2320.00
2018-07-20T12:22:55.189Z,2396.00
2018-07-20T12:23:55.071Z,2316.00
2018-07-20T12:24:54.955Z,2204.00
2018-07-20T12:25:54.839Z,2124.00
2018-07-20T12:26:54.725Z,2020.00
2018-07-20T12:27:54.607Z,1964.00